sensor_id;sensor_type;location;lat;lon;timestamp;P1;durP1;ratioP1;P2;durP2;ratioP2
8652;SDS011;4364;52.426;9.424;2023-07-22T00:01:31;8.60;;;6.57;;
8652;SDS011;4364;52.426;9.424;2023-07-22T00:03:58;9.97;;;6.70;;
8652;SDS011;4364;52.426;9.424;2023-07-22T00:06:25;8.97;;;7.23;;
8652;SDS011;4364;52.426;9.424;2023-07-22T00:08:53;9.80;;;7.40;;
8652;SDS011;4364;52.426;9.424;2023-07-22T00:11:20;11.63;;;7.40;;
8652;SDS011;4364;52.426;9.424;2023-07-22T00:13:47;11.93;;;8.00;;
8652;SDS011;4364;52.426;9.424;2023-07-22T00:16:13;13.53;;;7.67;;
8652;SDS011;4364;52.426;9.424;2023-07-22T00:18:40;9.83;;;7.43;;
8652;SDS011;4364;52.426;9.424;2023-07-22T00:21:06;10.77;;;6.93;;
8652;SDS011;4364;52.426;9.424;2023-07-22T00:23:33;12.77;;;7.60;;
8652;SDS011;4364;52.426;9.424;2023-07-22T00:26:00;11.53;;;7.50;;
8652;SDS011;4364;52.426;9.424;2023-07-22T00:28:27;11.53;;;7.67;;
8652;SDS011;4364;52.426;9.424;2023-07-22T00:30:53;10.47;;;7.60;;
8652;SDS011;4364;52.426;9.424;2023-07-22T00:33:20;15.10;;;7.93;;
8652;SDS011;4364;52.426;9.424;2023-07-22T00:35:48;12.90;;;8.30;;
8652;SDS011;4364;52.426;9.424;2023-07-22T00:38:17;10.17;;;7.50;;
8652;SDS011;4364;52.426;9.424;2023-07-22T00:40:44;10.67;;;7.67;;
8652;SDS011;4364;52.426;9.424;2023-07-22T00:43:10;11.17;;;7.90;;
8652;SDS011;4364;52.426;9.424;2023-07-22T00:45:37;9.17;;;7.20;;
8652;SDS011;4364;52.426;9.424;2023-07-22T00:48:04;10.67;;;8.10;;
8652;SDS011;4364;52.426;9.424;2023-07-22T00:50:32;11.10;;;7.33;;
8652;SDS011;4364;52.426;9.424;2023-07-22T00:52:59;12.80;;;8.00;;
8652;SDS011;4364;52.426;9.424;2023-07-22T00:55:25;11.17;;;8.00;;
8652;SDS011;4364;52.426;9.424;2023-07-22T00:57:54;12.10;;;8.20;;
8652;SDS011;4364;52.426;9.424;2023-07-22T01:00:21;12.07;;;7.97;;
8652;SDS011;4364;52.426;9.424;2023-07-22T01:02:48;13.70;;;8.23;;
8652;SDS011;4364;52.426;9.424;2023-07-22T01:05:15;11.00;;;7.80;;
8652;SDS011;4364;52.426;9.424;2023-07-22T01:07:43;12.30;;;8.40;;
8652;SDS011;4364;52.426;9.424;2023-07-22T01:10:10;10.90;;;8.20;;
8652;SDS011;4364;52.426;9.424;2023-07-22T01:12:39;10.50;;;7.80;;
8652;SDS011;4364;52.426;9.424;2023-07-22T01:15:05;12.33;;;8.20;;
8652;SDS011;4364;52.426;9.424;2023-07-22T01:17:34;11.83;;;7.77;;
8652;SDS011;4364;52.426;9.424;2023-07-22T01:20:04;12.47;;;8.50;;
8652;SDS011;4364;52.426;9.424;2023-07-22T01:22:32;12.57;;;8.07;;
8652;SDS011;4364;52.426;9.424;2023-07-22T01:24:59;11.70;;;8.47;;
8652;SDS011;4364;52.426;9.424;2023-07-22T01:27:27;13.97;;;8.87;;
8652;SDS011;4364;52.426;9.424;2023-07-22T01:29:53;12.17;;;8.20;;
8652;SDS011;4364;52.426;9.424;2023-07-22T01:32:20;12.77;;;8.47;;
8652;SDS011;4364;52.426;9.424;2023-07-22T01:34:47;13.37;;;8.53;;
8652;SDS011;4364;52.426;9.424;2023-07-22T01:37:14;11.57;;;8.23;;
8652;SDS011;4364;52.426;9.424;2023-07-22T01:39:40;16.60;;;8.87;;
8652;SDS011;4364;52.426;9.424;2023-07-22T01:42:07;15.70;;;8.83;;
8652;SDS011;4364;52.426;9.424;2023-07-22T01:44:33;14.60;;;8.33;;
8652;SDS011;4364;52.426;9.424;2023-07-22T01:47:02;15.70;;;8.63;;
8652;SDS011;4364;52.426;9.424;2023-07-22T01:49:29;15.17;;;9.30;;
8652;SDS011;4364;52.426;9.424;2023-07-22T01:51:56;12.00;;;8.33;;
8652;SDS011;4364;52.426;9.424;2023-07-22T01:54:22;18.70;;;9.23;;
8652;SDS011;4364;52.426;9.424;2023-07-22T01:56:49;13.87;;;8.60;;
8652;SDS011;4364;52.426;9.424;2023-07-22T01:59:16;12.97;;;8.30;;
8652;SDS011;4364;52.426;9.424;2023-07-22T02:01:42;12.93;;;8.40;;
8652;SDS011;4364;52.426;9.424;2023-07-22T02:04:09;13.23;;;9.10;;
8652;SDS011;4364;52.426;9.424;2023-07-22T02:06:37;13.23;;;7.93;;
8652;SDS011;4364;52.426;9.424;2023-07-22T02:09:04;15.47;;;9.40;;
8652;SDS011;4364;52.426;9.424;2023-07-22T02:11:35;12.97;;;8.87;;
8652;SDS011;4364;52.426;9.424;2023-07-22T02:14:02;14.43;;;8.67;;
8652;SDS011;4364;52.426;9.424;2023-07-22T02:16:36;15.17;;;8.03;;
8652;SDS011;4364;52.426;9.424;2023-07-22T02:19:03;14.77;;;7.73;;
8652;SDS011;4364;52.426;9.424;2023-07-22T02:21:38;15.60;;;8.33;;
8652;SDS011;4364;52.426;9.424;2023-07-22T02:24:05;13.30;;;8.83;;
8652;SDS011;4364;52.426;9.424;2023-07-22T02:26:31;14.17;;;8.23;;
8652;SDS011;4364;52.426;9.424;2023-07-22T02:28:58;16.07;;;8.93;;
8652;SDS011;4364;52.426;9.424;2023-07-22T02:31:24;14.17;;;8.93;;
8652;SDS011;4364;52.426;9.424;2023-07-22T02:33:52;14.57;;;8.73;;
8652;SDS011;4364;52.426;9.424;2023-07-22T02:36:18;15.27;;;9.40;;
8652;SDS011;4364;52.426;9.424;2023-07-22T02:38:45;16.77;;;8.83;;
8652;SDS011;4364;52.426;9.424;2023-07-22T02:41:12;15.50;;;8.83;;
8652;SDS011;4364;52.426;9.424;2023-07-22T02:43:38;13.73;;;8.30;;
8652;SDS011;4364;52.426;9.424;2023-07-22T02:46:06;13.23;;;8.53;;
8652;SDS011;4364;52.426;9.424;2023-07-22T02:48:34;16.40;;;9.37;;
8652;SDS011;4364;52.426;9.424;2023-07-22T02:51:05;15.97;;;8.77;;
8652;SDS011;4364;52.426;9.424;2023-07-22T02:53:33;15.67;;;8.53;;
8652;SDS011;4364;52.426;9.424;2023-07-22T02:56:00;13.20;;;8.33;;
8652;SDS011;4364;52.426;9.424;2023-07-22T02:58:27;18.37;;;9.23;;
8652;SDS011;4364;52.426;9.424;2023-07-22T03:00:53;14.03;;;9.13;;
8652;SDS011;4364;52.426;9.424;2023-07-22T03:03:20;12.43;;;8.50;;
8652;SDS011;4364;52.426;9.424;2023-07-22T03:05:47;15.77;;;9.10;;
8652;SDS011;4364;52.426;9.424;2023-07-22T03:08:14;13.40;;;8.80;;
8652;SDS011;4364;52.426;9.424;2023-07-22T03:10:41;17.63;;;8.70;;
8652;SDS011;4364;52.426;9.424;2023-07-22T03:13:13;17.17;;;9.03;;
8652;SDS011;4364;52.426;9.424;2023-07-22T03:15:40;15.47;;;8.93;;
8652;SDS011;4364;52.426;9.424;2023-07-22T03:18:06;18.23;;;9.00;;
8652;SDS011;4364;52.426;9.424;2023-07-22T03:20:33;15.63;;;9.30;;
8652;SDS011;4364;52.426;9.424;2023-07-22T03:22:59;15.53;;;8.80;;
8652;SDS011;4364;52.426;9.424;2023-07-22T03:25:26;18.90;;;9.37;;
8652;SDS011;4364;52.426;9.424;2023-07-22T03:27:53;17.37;;;8.60;;
8652;SDS011;4364;52.426;9.424;2023-07-22T03:30:21;15.00;;;8.93;;
8652;SDS011;4364;52.426;9.424;2023-07-22T03:32:48;12.87;;;8.30;;
8652;SDS011;4364;52.426;9.424;2023-07-22T03:35:17;17.43;;;8.97;;
8652;SDS011;4364;52.426;9.424;2023-07-22T03:37:45;13.17;;;9.23;;
8652;SDS011;4364;52.426;9.424;2023-07-22T03:40:12;15.97;;;8.83;;
8652;SDS011;4364;52.426;9.424;2023-07-22T03:42:49;13.97;;;9.30;;
8652;SDS011;4364;52.426;9.424;2023-07-22T03:45:17;18.33;;;10.17;;
8652;SDS011;4364;52.426;9.424;2023-07-22T03:47:45;14.93;;;8.43;;
8652;SDS011;4364;52.426;9.424;2023-07-22T03:50:13;14.70;;;8.07;;
8652;SDS011;4364;52.426;9.424;2023-07-22T03:52:40;13.63;;;8.37;;
8652;SDS011;4364;52.426;9.424;2023-07-22T03:55:06;15.13;;;8.67;;
8652;SDS011;4364;52.426;9.424;2023-07-22T03:57:33;13.30;;;8.90;;
8652;SDS011;4364;52.426;9.424;2023-07-22T04:00:02;14.37;;;8.83;;
8652;SDS011;4364;52.426;9.424;2023-07-22T04:02:37;16.03;;;8.80;;
8652;SDS011;4364;52.426;9.424;2023-07-22T04:05:04;16.27;;;8.30;;
8652;SDS011;4364;52.426;9.424;2023-07-22T04:07:31;15.30;;;9.23;;
8652;SDS011;4364;52.426;9.424;2023-07-22T04:09:58;15.33;;;8.90;;
8652;SDS011;4364;52.426;9.424;2023-07-22T04:12:24;13.20;;;8.93;;
8652;SDS011;4364;52.426;9.424;2023-07-22T04:14:51;19.63;;;9.80;;
8652;SDS011;4364;52.426;9.424;2023-07-22T04:17:19;15.87;;;9.63;;
8652;SDS011;4364;52.426;9.424;2023-07-22T04:19:46;19.37;;;9.60;;
8652;SDS011;4364;52.426;9.424;2023-07-22T04:22:12;16.33;;;9.33;;
8652;SDS011;4364;52.426;9.424;2023-07-22T04:24:39;15.13;;;8.97;;
8652;SDS011;4364;52.426;9.424;2023-07-22T04:27:06;15.07;;;8.70;;
8652;SDS011;4364;52.426;9.424;2023-07-22T04:29:32;15.90;;;9.50;;
8652;SDS011;4364;52.426;9.424;2023-07-22T04:31:59;13.70;;;9.53;;
8652;SDS011;4364;52.426;9.424;2023-07-22T04:34:30;17.67;;;9.67;;
8652;SDS011;4364;52.426;9.424;2023-07-22T04:36:57;13.60;;;9.00;;
8652;SDS011;4364;52.426;9.424;2023-07-22T04:39:24;16.43;;;10.13;;
8652;SDS011;4364;52.426;9.424;2023-07-22T04:41:51;18.03;;;9.77;;
8652;SDS011;4364;52.426;9.424;2023-07-22T04:44:18;15.17;;;9.37;;
8652;SDS011;4364;52.426;9.424;2023-07-22T04:46:45;15.60;;;9.63;;
8652;SDS011;4364;52.426;9.424;2023-07-22T04:49:12;14.57;;;9.57;;
8652;SDS011;4364;52.426;9.424;2023-07-22T04:51:39;17.90;;;9.77;;
8652;SDS011;4364;52.426;9.424;2023-07-22T04:54:05;16.77;;;9.07;;
8652;SDS011;4364;52.426;9.424;2023-07-22T04:56:32;16.70;;;9.63;;
8652;SDS011;4364;52.426;9.424;2023-07-22T04:58:58;16.33;;;9.50;;
8652;SDS011;4364;52.426;9.424;2023-07-22T05:01:25;16.23;;;9.23;;
8652;SDS011;4364;52.426;9.424;2023-07-22T05:03:51;16.63;;;9.57;;
8652;SDS011;4364;52.426;9.424;2023-07-22T05:06:21;16.40;;;9.67;;
8652;SDS011;4364;52.426;9.424;2023-07-22T05:08:48;18.07;;;9.50;;
8652;SDS011;4364;52.426;9.424;2023-07-22T05:11:15;14.73;;;9.33;;
8652;SDS011;4364;52.426;9.424;2023-07-22T05:13:41;14.93;;;9.23;;
8652;SDS011;4364;52.426;9.424;2023-07-22T05:16:08;15.80;;;9.67;;
8652;SDS011;4364;52.426;9.424;2023-07-22T05:18:35;17.17;;;8.97;;
8652;SDS011;4364;52.426;9.424;2023-07-22T05:21:01;16.17;;;9.17;;
8652;SDS011;4364;52.426;9.424;2023-07-22T05:23:28;18.23;;;9.77;;
8652;SDS011;4364;52.426;9.424;2023-07-22T05:25:54;18.27;;;9.77;;
8652;SDS011;4364;52.426;9.424;2023-07-22T05:28:21;20.40;;;10.23;;
8652;SDS011;4364;52.426;9.424;2023-07-22T05:30:50;16.90;;;9.57;;
8652;SDS011;4364;52.426;9.424;2023-07-22T05:33:17;15.73;;;9.20;;
8652;SDS011;4364;52.426;9.424;2023-07-22T05:35:44;16.97;;;9.47;;
8652;SDS011;4364;52.426;9.424;2023-07-22T05:38:14;14.73;;;9.37;;
8652;SDS011;4364;52.426;9.424;2023-07-22T05:40:40;16.23;;;10.00;;
8652;SDS011;4364;52.426;9.424;2023-07-22T05:43:07;19.53;;;10.13;;
8652;SDS011;4364;52.426;9.424;2023-07-22T05:45:33;16.23;;;9.37;;
8652;SDS011;4364;52.426;9.424;2023-07-22T05:48:00;15.63;;;9.50;;
8652;SDS011;4364;52.426;9.424;2023-07-22T05:50:26;18.67;;;9.77;;
8652;SDS011;4364;52.426;9.424;2023-07-22T05:52:53;16.17;;;9.37;;
8652;SDS011;4364;52.426;9.424;2023-07-22T05:55:19;17.27;;;9.30;;
8652;SDS011;4364;52.426;9.424;2023-07-22T05:57:46;16.97;;;10.23;;
8652;SDS011;4364;52.426;9.424;2023-07-22T06:00:13;17.73;;;9.43;;
8652;SDS011;4364;52.426;9.424;2023-07-22T06:02:40;18.50;;;10.13;;
8652;SDS011;4364;52.426;9.424;2023-07-22T06:05:07;16.00;;;9.17;;
8652;SDS011;4364;52.426;9.424;2023-07-22T06:07:34;14.87;;;9.27;;
8652;SDS011;4364;52.426;9.424;2023-07-22T06:10:01;16.70;;;10.30;;
8652;SDS011;4364;52.426;9.424;2023-07-22T06:12:27;16.43;;;9.67;;
8652;SDS011;4364;52.426;9.424;2023-07-22T06:14:54;15.13;;;9.53;;
8652;SDS011;4364;52.426;9.424;2023-07-22T06:17:21;13.10;;;8.90;;
8652;SDS011;4364;52.426;9.424;2023-07-22T06:19:48;14.70;;;9.40;;
8652;SDS011;4364;52.426;9.424;2023-07-22T06:22:15;14.63;;;9.53;;
8652;SDS011;4364;52.426;9.424;2023-07-22T06:24:41;15.40;;;10.00;;
8652;SDS011;4364;52.426;9.424;2023-07-22T06:27:08;14.37;;;9.97;;
8652;SDS011;4364;52.426;9.424;2023-07-22T06:29:35;15.97;;;9.97;;
8652;SDS011;4364;52.426;9.424;2023-07-22T06:32:01;16.03;;;10.13;;
8652;SDS011;4364;52.426;9.424;2023-07-22T06:34:29;16.53;;;10.47;;
8652;SDS011;4364;52.426;9.424;2023-07-22T06:36:55;16.23;;;9.67;;
8652;SDS011;4364;52.426;9.424;2023-07-22T06:39:22;13.57;;;8.97;;
8652;SDS011;4364;52.426;9.424;2023-07-22T06:41:49;17.03;;;9.83;;
8652;SDS011;4364;52.426;9.424;2023-07-22T06:44:15;14.50;;;9.73;;
8652;SDS011;4364;52.426;9.424;2023-07-22T06:46:42;17.90;;;10.30;;
8652;SDS011;4364;52.426;9.424;2023-07-22T06:49:09;16.70;;;9.63;;
8652;SDS011;4364;52.426;9.424;2023-07-22T06:51:35;18.47;;;10.93;;
8652;SDS011;4364;52.426;9.424;2023-07-22T06:54:02;16.10;;;10.03;;
8652;SDS011;4364;52.426;9.424;2023-07-22T06:56:29;15.37;;;9.33;;
8652;SDS011;4364;52.426;9.424;2023-07-22T06:58:56;16.43;;;10.20;;
8652;SDS011;4364;52.426;9.424;2023-07-22T07:01:23;16.57;;;9.57;;
8652;SDS011;4364;52.426;9.424;2023-07-22T07:03:50;15.73;;;9.57;;
8652;SDS011;4364;52.426;9.424;2023-07-22T07:06:17;16.07;;;9.63;;
8652;SDS011;4364;52.426;9.424;2023-07-22T07:08:43;17.20;;;10.17;;
8652;SDS011;4364;52.426;9.424;2023-07-22T07:11:10;13.90;;;9.03;;
8652;SDS011;4364;52.426;9.424;2023-07-22T07:13:36;15.80;;;9.90;;
8652;SDS011;4364;52.426;9.424;2023-07-22T07:16:19;15.20;;;9.37;;
8652;SDS011;4364;52.426;9.424;2023-07-22T07:18:50;16.90;;;10.67;;
8652;SDS011;4364;52.426;9.424;2023-07-22T07:21:18;15.60;;;9.07;;
8652;SDS011;4364;52.426;9.424;2023-07-22T07:23:45;18.20;;;9.50;;
8652;SDS011;4364;52.426;9.424;2023-07-22T07:26:11;17.57;;;10.23;;
8652;SDS011;4364;52.426;9.424;2023-07-22T07:28:38;17.37;;;9.87;;
8652;SDS011;4364;52.426;9.424;2023-07-22T07:31:05;14.03;;;8.77;;
8652;SDS011;4364;52.426;9.424;2023-07-22T07:33:32;14.33;;;9.30;;
8652;SDS011;4364;52.426;9.424;2023-07-22T07:35:59;13.57;;;9.43;;
8652;SDS011;4364;52.426;9.424;2023-07-22T07:38:27;16.00;;;9.63;;
8652;SDS011;4364;52.426;9.424;2023-07-22T07:41:12;14.40;;;9.37;;
8652;SDS011;4364;52.426;9.424;2023-07-22T07:43:40;14.67;;;9.00;;
8652;SDS011;4364;52.426;9.424;2023-07-22T07:46:20;14.23;;;9.23;;
8652;SDS011;4364;52.426;9.424;2023-07-22T07:48:52;15.13;;;9.60;;
8652;SDS011;4364;52.426;9.424;2023-07-22T07:51:21;15.27;;;9.60;;
8652;SDS011;4364;52.426;9.424;2023-07-22T07:53:50;13.83;;;8.93;;
8652;SDS011;4364;52.426;9.424;2023-07-22T07:56:17;17.30;;;8.90;;
8652;SDS011;4364;52.426;9.424;2023-07-22T07:58:45;12.63;;;8.37;;
8652;SDS011;4364;52.426;9.424;2023-07-22T08:01:13;11.67;;;7.90;;
8652;SDS011;4364;52.426;9.424;2023-07-22T08:03:40;12.77;;;7.63;;
8652;SDS011;4364;52.426;9.424;2023-07-22T08:06:08;12.93;;;8.33;;
8652;SDS011;4364;52.426;9.424;2023-07-22T08:08:36;10.90;;;8.07;;
8652;SDS011;4364;52.426;9.424;2023-07-22T08:11:04;9.87;;;7.77;;
8652;SDS011;4364;52.426;9.424;2023-07-22T08:13:33;14.77;;;7.97;;
8652;SDS011;4364;52.426;9.424;2023-07-22T08:16:01;12.20;;;7.30;;
8652;SDS011;4364;52.426;9.424;2023-07-22T08:18:32;15.03;;;8.63;;
8652;SDS011;4364;52.426;9.424;2023-07-22T08:21:00;11.13;;;7.70;;
8652;SDS011;4364;52.426;9.424;2023-07-22T08:23:29;11.50;;;8.13;;
8652;SDS011;4364;52.426;9.424;2023-07-22T08:25:56;11.30;;;7.80;;
8652;SDS011;4364;52.426;9.424;2023-07-22T08:28:23;12.37;;;8.60;;
8652;SDS011;4364;52.426;9.424;2023-07-22T08:30:50;10.97;;;7.93;;
8652;SDS011;4364;52.426;9.424;2023-07-22T08:33:21;11.63;;;8.00;;
8652;SDS011;4364;52.426;9.424;2023-07-22T08:36:06;12.93;;;8.00;;
8652;SDS011;4364;52.426;9.424;2023-07-22T08:38:32;11.53;;;7.70;;
8652;SDS011;4364;52.426;9.424;2023-07-22T08:40:59;10.97;;;8.13;;
8652;SDS011;4364;52.426;9.424;2023-07-22T08:43:28;11.77;;;8.50;;
8652;SDS011;4364;52.426;9.424;2023-07-22T08:45:56;12.07;;;8.63;;
8652;SDS011;4364;52.426;9.424;2023-07-22T08:48:26;13.33;;;9.23;;
8652;SDS011;4364;52.426;9.424;2023-07-22T08:50:56;11.63;;;8.80;;
8652;SDS011;4364;52.426;9.424;2023-07-22T08:53:29;12.93;;;9.43;;
8652;SDS011;4364;52.426;9.424;2023-07-22T08:55:56;15.73;;;10.50;;
8652;SDS011;4364;52.426;9.424;2023-07-22T08:58:23;14.73;;;10.43;;
8652;SDS011;4364;52.426;9.424;2023-07-22T09:00:50;14.97;;;11.27;;
8652;SDS011;4364;52.426;9.424;2023-07-22T09:03:18;16.43;;;10.90;;
8652;SDS011;4364;52.426;9.424;2023-07-22T09:05:45;17.40;;;11.40;;
8652;SDS011;4364;52.426;9.424;2023-07-22T09:08:12;14.30;;;10.93;;
8652;SDS011;4364;52.426;9.424;2023-07-22T09:10:39;14.63;;;10.20;;
8652;SDS011;4364;52.426;9.424;2023-07-22T09:13:08;14.20;;;10.63;;
8652;SDS011;4364;52.426;9.424;2023-07-22T09:15:36;14.87;;;10.87;;
8652;SDS011;4364;52.426;9.424;2023-07-22T09:18:03;14.80;;;10.30;;
8652;SDS011;4364;52.426;9.424;2023-07-22T09:20:30;13.77;;;10.40;;
8652;SDS011;4364;52.426;9.424;2023-07-22T09:22:57;17.63;;;10.80;;
8652;SDS011;4364;52.426;9.424;2023-07-22T09:25:39;14.90;;;10.80;;
8652;SDS011;4364;52.426;9.424;2023-07-22T09:28:07;15.17;;;10.07;;
8652;SDS011;4364;52.426;9.424;2023-07-22T09:30:35;13.27;;;9.63;;
8652;SDS011;4364;52.426;9.424;2023-07-22T09:33:03;13.37;;;9.87;;
8652;SDS011;4364;52.426;9.424;2023-07-22T09:35:40;12.87;;;9.77;;
8652;SDS011;4364;52.426;9.424;2023-07-22T09:38:11;13.13;;;9.30;;
8652;SDS011;4364;52.426;9.424;2023-07-22T09:40:41;12.40;;;9.40;;
8652;SDS011;4364;52.426;9.424;2023-07-22T09:43:09;13.10;;;9.27;;
8652;SDS011;4364;52.426;9.424;2023-07-22T09:45:38;11.87;;;9.43;;
8652;SDS011;4364;52.426;9.424;2023-07-22T09:48:05;12.63;;;10.13;;
8652;SDS011;4364;52.426;9.424;2023-07-22T09:50:35;13.27;;;9.83;;
8652;SDS011;4364;52.426;9.424;2023-07-22T09:53:02;16.17;;;10.23;;
8652;SDS011;4364;52.426;9.424;2023-07-22T09:55:30;14.20;;;10.10;;
8652;SDS011;4364;52.426;9.424;2023-07-22T09:57:58;14.37;;;9.03;;
8652;SDS011;4364;52.426;9.424;2023-07-22T10:00:30;13.87;;;9.73;;
8652;SDS011;4364;52.426;9.424;2023-07-22T10:03:00;10.77;;;7.73;;
8652;SDS011;4364;52.426;9.424;2023-07-22T10:05:32;12.43;;;8.83;;
8652;SDS011;4364;52.426;9.424;2023-07-22T10:08:04;9.67;;;7.50;;
8652;SDS011;4364;52.426;9.424;2023-07-22T10:10:33;12.97;;;8.13;;
8652;SDS011;4364;52.426;9.424;2023-07-22T10:13:04;11.77;;;8.63;;
8652;SDS011;4364;52.426;9.424;2023-07-22T10:15:32;10.10;;;7.97;;
8652;SDS011;4364;52.426;9.424;2023-07-22T10:18:00;12.77;;;8.70;;
8652;SDS011;4364;52.426;9.424;2023-07-22T10:20:28;10.83;;;8.03;;
8652;SDS011;4364;52.426;9.424;2023-07-22T10:22:56;7.27;;;5.87;;
8652;SDS011;4364;52.426;9.424;2023-07-22T10:25:22;9.13;;;7.20;;
8652;SDS011;4364;52.426;9.424;2023-07-22T10:27:51;7.50;;;6.43;;
8652;SDS011;4364;52.426;9.424;2023-07-22T10:30:18;8.67;;;6.70;;
8652;SDS011;4364;52.426;9.424;2023-07-22T10:32:49;9.97;;;6.97;;
8652;SDS011;4364;52.426;9.424;2023-07-22T10:38:17;9.40;;;6.93;;
8652;SDS011;4364;52.426;9.424;2023-07-22T10:40:47;10.87;;;7.83;;
8652;SDS011;4364;52.426;9.424;2023-07-22T10:43:16;9.43;;;6.83;;
8652;SDS011;4364;52.426;9.424;2023-07-22T10:45:50;10.90;;;6.77;;
8652;SDS011;4364;52.426;9.424;2023-07-22T10:48:18;6.80;;;5.57;;
8652;SDS011;4364;52.426;9.424;2023-07-22T10:58:54;8.60;;;5.63;;
8652;SDS011;4364;52.426;9.424;2023-07-22T11:14:32;8.63;;;6.90;;
8652;SDS011;4364;52.426;9.424;2023-07-22T11:17:29;9.73;;;6.60;;
8652;SDS011;4364;52.426;9.424;2023-07-22T11:19:58;10.27;;;7.37;;
8652;SDS011;4364;52.426;9.424;2023-07-22T11:22:25;8.43;;;6.60;;
8652;SDS011;4364;52.426;9.424;2023-07-22T11:24:55;8.43;;;6.40;;
8652;SDS011;4364;52.426;9.424;2023-07-22T11:27:24;7.70;;;6.50;;
8652;SDS011;4364;52.426;9.424;2023-07-22T11:29:51;11.00;;;6.37;;
8652;SDS011;4364;52.426;9.424;2023-07-22T11:32:19;8.03;;;6.27;;
8652;SDS011;4364;52.426;9.424;2023-07-22T11:34:51;7.47;;;5.97;;
8652;SDS011;4364;52.426;9.424;2023-07-22T11:37:19;9.47;;;6.40;;
8652;SDS011;4364;52.426;9.424;2023-07-22T11:39:46;10.33;;;6.60;;
8652;SDS011;4364;52.426;9.424;2023-07-22T11:42:12;10.90;;;6.10;;
8652;SDS011;4364;52.426;9.424;2023-07-22T11:44:39;10.37;;;6.43;;
8652;SDS011;4364;52.426;9.424;2023-07-22T11:47:06;9.33;;;6.83;;
8652;SDS011;4364;52.426;9.424;2023-07-22T11:49:37;8.03;;;6.10;;
8652;SDS011;4364;52.426;9.424;2023-07-22T11:52:06;8.23;;;6.00;;
8652;SDS011;4364;52.426;9.424;2023-07-22T11:54:41;10.83;;;6.40;;
8652;SDS011;4364;52.426;9.424;2023-07-22T11:59:47;9.23;;;6.63;;
8652;SDS011;4364;52.426;9.424;2023-07-22T12:02:19;8.10;;;6.23;;
8652;SDS011;4364;52.426;9.424;2023-07-22T12:09:59;11.80;;;7.37;;
8652;SDS011;4364;52.426;9.424;2023-07-22T12:12:45;13.60;;;8.03;;
8652;SDS011;4364;52.426;9.424;2023-07-22T12:15:13;13.50;;;8.30;;
8652;SDS011;4364;52.426;9.424;2023-07-22T12:20:13;11.77;;;8.00;;
8652;SDS011;4364;52.426;9.424;2023-07-22T12:22:40;10.50;;;8.03;;
8652;SDS011;4364;52.426;9.424;2023-07-22T12:25:07;9.47;;;6.90;;
8652;SDS011;4364;52.426;9.424;2023-07-22T12:27:34;11.50;;;7.50;;
8652;SDS011;4364;52.426;9.424;2023-07-22T12:30:00;11.10;;;7.97;;
8652;SDS011;4364;52.426;9.424;2023-07-22T12:32:27;10.53;;;8.23;;
8652;SDS011;4364;52.426;9.424;2023-07-22T12:34:53;9.93;;;7.27;;
8652;SDS011;4364;52.426;9.424;2023-07-22T12:37:20;9.00;;;7.30;;
8652;SDS011;4364;52.426;9.424;2023-07-22T12:39:47;9.57;;;7.30;;
8652;SDS011;4364;52.426;9.424;2023-07-22T12:42:13;10.80;;;7.33;;
8652;SDS011;4364;52.426;9.424;2023-07-22T12:44:40;10.70;;;7.60;;
8652;SDS011;4364;52.426;9.424;2023-07-22T12:47:07;10.70;;;8.07;;
8652;SDS011;4364;52.426;9.424;2023-07-22T12:49:34;8.40;;;7.00;;
8652;SDS011;4364;52.426;9.424;2023-07-22T12:52:02;8.77;;;7.03;;
8652;SDS011;4364;52.426;9.424;2023-07-22T12:54:30;10.97;;;8.27;;
8652;SDS011;4364;52.426;9.424;2023-07-22T12:56:58;8.87;;;7.33;;
8652;SDS011;4364;52.426;9.424;2023-07-22T12:59:24;12.03;;;8.47;;
8652;SDS011;4364;52.426;9.424;2023-07-22T13:01:51;10.80;;;8.10;;
8652;SDS011;4364;52.426;9.424;2023-07-22T13:04:19;10.07;;;8.17;;
8652;SDS011;4364;52.426;9.424;2023-07-22T13:06:45;9.77;;;8.27;;
8652;SDS011;4364;52.426;9.424;2023-07-22T13:09:12;10.27;;;8.57;;
8652;SDS011;4364;52.426;9.424;2023-07-22T13:11:38;10.27;;;8.37;;
8652;SDS011;4364;52.426;9.424;2023-07-22T13:14:05;11.00;;;8.33;;
8652;SDS011;4364;52.426;9.424;2023-07-22T13:16:31;11.20;;;8.10;;
8652;SDS011;4364;52.426;9.424;2023-07-22T13:18:58;12.13;;;8.73;;
8652;SDS011;4364;52.426;9.424;2023-07-22T13:21:26;11.50;;;8.20;;
8652;SDS011;4364;52.426;9.424;2023-07-22T13:23:54;12.67;;;8.17;;
8652;SDS011;4364;52.426;9.424;2023-07-22T13:26:21;10.10;;;8.37;;
8652;SDS011;4364;52.426;9.424;2023-07-22T13:28:48;12.80;;;8.73;;
8652;SDS011;4364;52.426;9.424;2023-07-22T13:31:15;13.60;;;8.90;;
8652;SDS011;4364;52.426;9.424;2023-07-22T13:33:41;10.27;;;8.10;;
8652;SDS011;4364;52.426;9.424;2023-07-22T13:36:09;10.10;;;7.83;;
8652;SDS011;4364;52.426;9.424;2023-07-22T13:38:35;10.30;;;8.33;;
8652;SDS011;4364;52.426;9.424;2023-07-22T13:41:04;11.63;;;8.13;;
8652;SDS011;4364;52.426;9.424;2023-07-22T13:43:31;13.40;;;8.50;;
8652;SDS011;4364;52.426;9.424;2023-07-22T13:45:57;9.47;;;7.83;;
8652;SDS011;4364;52.426;9.424;2023-07-22T13:48:24;9.80;;;7.90;;
8652;SDS011;4364;52.426;9.424;2023-07-22T13:50:51;9.90;;;8.13;;
8652;SDS011;4364;52.426;9.424;2023-07-22T13:53:17;10.70;;;8.20;;
8652;SDS011;4364;52.426;9.424;2023-07-22T13:55:44;11.47;;;8.57;;
8652;SDS011;4364;52.426;9.424;2023-07-22T13:58:16;10.60;;;8.27;;
8652;SDS011;4364;52.426;9.424;2023-07-22T14:00:42;10.27;;;7.33;;
8652;SDS011;4364;52.426;9.424;2023-07-22T14:03:09;10.63;;;7.60;;
8652;SDS011;4364;52.426;9.424;2023-07-22T14:05:36;10.27;;;7.90;;
8652;SDS011;4364;52.426;9.424;2023-07-22T14:08:02;9.33;;;7.90;;
8652;SDS011;4364;52.426;9.424;2023-07-22T14:10:28;9.63;;;7.40;;
8652;SDS011;4364;52.426;9.424;2023-07-22T14:12:55;9.67;;;8.07;;
8652;SDS011;4364;52.426;9.424;2023-07-22T14:15:22;9.57;;;7.37;;
8652;SDS011;4364;52.426;9.424;2023-07-22T14:17:49;7.67;;;6.27;;
8652;SDS011;4364;52.426;9.424;2023-07-22T14:20:15;8.30;;;6.50;;
8652;SDS011;4364;52.426;9.424;2023-07-22T14:22:42;9.57;;;6.87;;
8652;SDS011;4364;52.426;9.424;2023-07-22T14:25:09;7.40;;;6.20;;
8652;SDS011;4364;52.426;9.424;2023-07-22T14:27:37;7.13;;;6.20;;
8652;SDS011;4364;52.426;9.424;2023-07-22T14:30:04;7.47;;;5.93;;
8652;SDS011;4364;52.426;9.424;2023-07-22T14:32:32;7.60;;;6.40;;
8652;SDS011;4364;52.426;9.424;2023-07-22T14:34:58;8.23;;;6.63;;
8652;SDS011;4364;52.426;9.424;2023-07-22T14:37:26;9.13;;;6.50;;
8652;SDS011;4364;52.426;9.424;2023-07-22T14:39:54;8.80;;;6.27;;
8652;SDS011;4364;52.426;9.424;2023-07-22T14:42:20;7.93;;;6.47;;
8652;SDS011;4364;52.426;9.424;2023-07-22T14:44:47;7.90;;;6.30;;
8652;SDS011;4364;52.426;9.424;2023-07-22T14:47:13;7.37;;;6.50;;
8652;SDS011;4364;52.426;9.424;2023-07-22T14:49:40;7.90;;;6.63;;
8652;SDS011;4364;52.426;9.424;2023-07-22T14:52:07;6.93;;;6.07;;
8652;SDS011;4364;52.426;9.424;2023-07-22T14:54:33;8.33;;;6.00;;
8652;SDS011;4364;52.426;9.424;2023-07-22T14:57:00;6.40;;;5.53;;
8652;SDS011;4364;52.426;9.424;2023-07-22T14:59:27;7.77;;;5.90;;
8652;SDS011;4364;52.426;9.424;2023-07-22T15:01:54;7.43;;;6.03;;
8652;SDS011;4364;52.426;9.424;2023-07-22T15:04:21;8.23;;;6.13;;
8652;SDS011;4364;52.426;9.424;2023-07-22T15:06:48;7.20;;;5.70;;
8652;SDS011;4364;52.426;9.424;2023-07-22T15:09:14;6.67;;;5.80;;
8652;SDS011;4364;52.426;9.424;2023-07-22T15:11:41;7.30;;;5.87;;
8652;SDS011;4364;52.426;9.424;2023-07-22T15:14:07;6.80;;;5.57;;
8652;SDS011;4364;52.426;9.424;2023-07-22T15:16:34;7.53;;;5.87;;
8652;SDS011;4364;52.426;9.424;2023-07-22T15:19:00;6.73;;;5.73;;
8652;SDS011;4364;52.426;9.424;2023-07-22T15:21:29;7.57;;;5.70;;
8652;SDS011;4364;52.426;9.424;2023-07-22T15:23:55;7.57;;;5.50;;
8652;SDS011;4364;52.426;9.424;2023-07-22T15:26:22;6.40;;;5.20;;
8652;SDS011;4364;52.426;9.424;2023-07-22T15:28:49;6.23;;;5.20;;
8652;SDS011;4364;52.426;9.424;2023-07-22T15:31:16;8.37;;;5.50;;
8652;SDS011;4364;52.426;9.424;2023-07-22T15:33:44;7.50;;;5.57;;
8652;SDS011;4364;52.426;9.424;2023-07-22T15:36:11;7.10;;;5.40;;
8652;SDS011;4364;52.426;9.424;2023-07-22T15:38:38;7.10;;;5.40;;
8652;SDS011;4364;52.426;9.424;2023-07-22T15:41:04;6.60;;;5.73;;